»·PEaware :: N65CT KSNA-KSAC

N65CT :: KSNA-KSAC

FLIGHT INFORMATION

Flight Status: Arrived
Operator: Privately registered:
United States
More flights under this callsign
Pilot: Ryan C. (15122)
Aircraft: CANADAIR CL-600 CHALLENGER
(CL60)
More flights by this aircraft type
Origin: KSNA John Wayne-Orange Co
United States
Destination: KSAC Sacramento Executive
United States
More flights between these airports :: More routes between these airports
Route: HHERO3 EHF NURAY LIN SAC
File this flight plan on PilotEdge
Remarks:
Altitude:
(Current/Filed)
38,000ft
Speed:
(Current/Filed)
472kts
Departed: 27-Feb-22 06:29 PM
Arrived: 27-Feb-22 07:32 PM
Distance/Time
Traveled:
339nm/1:03
Distance/Time
To Go:
Arrived

Flight Plot

Page will automatically refresh every two minutes.

Flight plan parsing failed; only flown route is shown


Map Options




Map Legend


Flown Route
Filed Route
Departure Airport
Arrival Airport
Navaid (VOR, NDB)
Fix

Horizontal Profiles

Position Reports

Time Latitude Longitude Heading Altitude Ground
Speed
27-Feb-22 17:51 33.674819 -117.871714 118 64ft 0kts
27-Feb-22 17:52 33.674819 -117.871714 118 64ft 0kts
27-Feb-22 17:53 33.674819 -117.871714 118 64ft 0kts
27-Feb-22 17:54 33.674819 -117.871714 118 64ft 0kts
27-Feb-22 17:55 33.674819 -117.871714 118 64ft 0kts
27-Feb-22 17:56 33.674819 -117.871714 118 64ft 0kts
27-Feb-22 17:57 33.674819 -117.871714 118 64ft 0kts
27-Feb-22 17:58 33.674819 -117.871714 118 64ft 0kts
27-Feb-22 17:59 33.674819 -117.871714 118 64ft 0kts
27-Feb-22 18:00 33.674819 -117.871714 118 64ft 0kts
27-Feb-22 18:01 33.674819 -117.871714 118 64ft 0kts
27-Feb-22 18:02 33.674819 -117.871714 118 64ft 0kts
27-Feb-22 18:03 33.674819 -117.871714 118 64ft 0kts
27-Feb-22 18:04 33.674819 -117.871714 118 64ft 0kts
27-Feb-22 18:05 33.674819 -117.871714 118 64ft 0kts
27-Feb-22 18:06 33.674819 -117.871714 118 64ft 0kts
27-Feb-22 18:07 33.674819 -117.871714 118 64ft 0kts
27-Feb-22 18:08 33.674819 -117.871714 118 64ft 0kts
27-Feb-22 18:09 33.674819 -117.871714 118 64ft 0kts
27-Feb-22 18:10 33.674819 -117.871714 118 64ft 0kts
27-Feb-22 18:11 33.674819 -117.871714 118 64ft 0kts
27-Feb-22 18:12 33.674819 -117.871714 118 64ft 0kts
27-Feb-22 18:13 33.674819 -117.871714 118 64ft 0kts
27-Feb-22 18:14 33.674819 -117.871714 118 64ft 0kts
27-Feb-22 18:15 33.674819 -117.871714 118 64ft 0kts
27-Feb-22 18:16 33.674819 -117.871714 118 64ft 0kts
27-Feb-22 18:17 33.674819 -117.871714 118 64ft 0kts
27-Feb-22 18:18 33.674819 -117.871714 118 64ft 0kts
27-Feb-22 18:19 33.674819 -117.871714 118 64ft 0kts
27-Feb-22 18:20 33.674819 -117.871714 118 64ft 0kts
27-Feb-22 18:21 33.674819 -117.871714 118 64ft 0kts
27-Feb-22 18:22 33.674819 -117.871714 118 64ft 0kts
27-Feb-22 18:23 33.674819 -117.871714 119 64ft 0kts
27-Feb-22 18:24 33.675756 -117.870279 27 64ft 10kts
27-Feb-22 18:25 33.679107 -117.868169 25 64ft 15kts
27-Feb-22 18:26 33.681896 -117.866343 68 64ft 6kts
27-Feb-22 18:27 33.681875 -117.865842 110 64ft 7kts
27-Feb-22 18:28 33.671178 -117.871681 207 108ft 159kts
27-Feb-22 18:29 33.619848 -117.893103 186 2977ft 228kts
27-Feb-22 18:30 33.556528 -117.915042 223 5036ft 257kts
27-Feb-22 18:31 33.499271 -117.980763 223 7280ft 299kts
27-Feb-22 18:32 33.450635 -118.061752 240 8773ft 312kts
27-Feb-22 18:33 33.413318 -118.151636 269 13623ft 297kts
27-Feb-22 18:34 33.429742 -118.250508 281 16003ft 306kts
27-Feb-22 18:35 33.459279 -118.347114 295 16465ft 319kts
27-Feb-22 18:36 33.501186 -118.441686 294 20140ft 319kts
27-Feb-22 18:37 33.585507 -118.481158 1 22754ft 373kts
27-Feb-22 18:38 33.691358 -118.465531 2 25115ft 390kts
27-Feb-22 18:39 33.801723 -118.459832 354 27193ft 400kts
27-Feb-22 18:40 33.914760 -118.459763 354 28960ft 413kts
27-Feb-22 18:41 34.031072 -118.464717 347 30692ft 420kts
27-Feb-22 18:42 34.149110 -118.482213 344 32186ft 430kts
27-Feb-22 18:43 34.269128 -118.500509 343 33389ft 439kts
27-Feb-22 18:44 34.391286 -118.519286 342 34616ft 442kts
27-Feb-22 18:45 34.512666 -118.538089 342 35816ft 441kts
27-Feb-22 18:46 34.634390 -118.556999 342 36873ft 441kts
27-Feb-22 18:47 34.756262 -118.576001 342 37780ft 441kts
27-Feb-22 18:48 34.879278 -118.595248 342 38282ft 446kts
27-Feb-22 18:49 35.000569 -118.627794 323 38283ft 439kts
27-Feb-22 18:50 35.099614 -118.713875 311 38283ft 441kts
27-Feb-22 18:51 35.197847 -118.809833 311 38285ft 453kts
27-Feb-22 18:52 35.296104 -118.907666 311 38279ft 454kts
27-Feb-22 18:53 35.393947 -119.006299 311 38275ft 454kts
27-Feb-22 18:54 35.496813 -119.099148 321 38290ft 466kts
27-Feb-22 18:55 35.615368 -119.167795 327 38296ft 474kts
27-Feb-22 18:56 35.736683 -119.232768 327 38294ft 474kts
27-Feb-22 18:57 35.857172 -119.297638 328 38294ft 473kts
27-Feb-22 18:58 35.977952 -119.362969 328 38293ft 473kts
27-Feb-22 18:59 36.098888 -119.428766 328 38291ft 472kts
27-Feb-22 19:00 36.218231 -119.493729 328 38292ft 471kts
27-Feb-22 19:01 36.338102 -119.559260 328 38292ft 471kts
27-Feb-22 19:02 36.457983 -119.625055 328 38291ft 471kts
27-Feb-22 19:03 36.576113 -119.693793 322 38294ft 465kts
27-Feb-22 19:04 36.683996 -119.780965 318 38292ft 460kts
27-Feb-22 19:05 36.789774 -119.870633 317 38291ft 459kts
27-Feb-22 19:06 36.894931 -119.960843 317 38291ft 459kts
27-Feb-22 19:07 37.000686 -120.052607 319 38289ft 459kts
27-Feb-22 19:08 37.105564 -120.143664 319 38289ft 458kts
27-Feb-22 19:09 37.212268 -120.236942 320 36606ft 463kts
27-Feb-22 19:10 37.317096 -120.329066 320 34201ft 459kts
27-Feb-22 19:11 37.420240 -120.420164 322 31986ft 443kts
27-Feb-22 19:12 37.517855 -120.506399 324 29656ft 416kts
27-Feb-22 19:13 37.610592 -120.588361 324 27216ft 399kts
27-Feb-22 19:14 37.700849 -120.668609 324 23955ft 400kts
27-Feb-22 19:15 37.791075 -120.749114 324 20725ft 388kts
27-Feb-22 19:16 37.877568 -120.826542 324 17536ft 374kts
27-Feb-22 19:17 37.960632 -120.901091 324 14342ft 359kts
27-Feb-22 19:18 38.039292 -120.971826 322 11849ft 323kts
27-Feb-22 19:19 38.099431 -121.043158 312 10729ft 272kts
27-Feb-22 19:20 38.149750 -121.114931 311 9078ft 267kts
27-Feb-22 19:21 38.197964 -121.185923 311 7370ft 260kts
27-Feb-22 19:22 38.244960 -121.255526 311 5732ft 248kts
27-Feb-22 19:23 38.289590 -121.321781 311 4242ft 234kts
27-Feb-22 19:24 38.330679 -121.382910 311 3055ft 210kts
27-Feb-22 19:25 38.368236 -121.439049 311 2956ft 207kts
27-Feb-22 19:26 38.415249 -121.476795 350 2353ft 194kts
27-Feb-22 19:27 38.461586 -121.483196 355 1939ft 154kts
27-Feb-22 19:28 38.498662 -121.469086 37 1241ft 145kts
27-Feb-22 19:29 38.532903 -121.444823 348 894ft 150kts
27-Feb-22 19:30 38.526049 -121.483452 213 288ft 135kts
27-Feb-22 19:31 38.505914 -121.500141 215 28ft 21kts
27-Feb-22 19:32 38.508232 -121.501593 13 28ft 10kts
27-Feb-22 19:33 38.511407 -121.498930 74 28ft 8kts
27-Feb-22 19:34 38.513577 -121.496820 4 27ft 10kts
27-Feb-22 19:35 38.514954 -121.498188 273 27ft 4kts
27-Feb-22 19:36 38.514856 -121.498367 223 27ft 0kts
27-Feb-22 19:37 38.514856 -121.498367 223 27ft 0kts
27-Feb-22 19:38 38.514856 -121.498367 223 27ft 0kts
27-Feb-22 19:40 38.514856 -121.498367 223 27ft 0kts
27-Feb-22 19:41 38.514856 -121.498367 223 27ft 0kts
27-Feb-22 19:42 38.514856 -121.498367 223 27ft 0kts
27-Feb-22 19:43 38.514856 -121.498367 223 27ft 0kts
27-Feb-22 19:44 38.514856 -121.498367 223 27ft 0kts
27-Feb-22 19:45 38.514856 -121.498367 223 27ft 0kts
27-Feb-22 19:46 38.514856 -121.498367 223 27ft 0kts
27-Feb-22 19:47 38.514856 -121.498367 223 27ft 0kts

Navigation Log

Ident Type
Flight plan parsing failed, navigation log unavailable